Time;durP1;ratioP1;P1;durP2;ratioP2;P2;SDS_P1;SDS_P2;PMS_P1;PMS_P2;Temp;Humidity;BMP_temperature;BMP_pressure;BME280_temperature;BME280_humidity;BME280_pressure;Samples;Min_cycle;Max_cycle;Signal;HPM_P1;HPM_P2
2022/01/25 00:25:43;;;;;;;53.13;29.15;;;22.80;32.70;;;;;;6045355;28;85074;-63
2022/01/25 00:31:38;;;;;;;49.45;27.35;;;22.80;32.50;;;;;;6052905;28;82859;-63
2022/01/25 00:34:38;;;;;;;49.25;27.35;;;22.80;32.60;;;;;;6060854;28;83906;-63
2022/01/25 00:37:39;;;;;;;46.55;27.60;;;22.80;32.60;;;;;;6049101;28;83481;-63
2022/01/25 00:40:39;;;;;;;53.15;28.60;;;22.80;32.60;;;;;;6062248;28;85921;-63
2022/01/25 00:43:40;;;;;;;52.35;28.30;;;22.80;32.90;;;;;;6044211;28;84282;-63
2022/01/25 00:46:40;;;;;;;47.72;27.50;;;22.80;33.30;;;;;;6059079;28;83749;-64
2022/01/25 00:49:43;;;;;;;51.92;28.38;;;22.70;33.30;;;;;;6063369;28;83168;-64
2022/01/25 00:55:44;;;;;;;49.13;28.52;;;22.70;33.30;;;;;;6048510;28;83081;-64
2022/01/25 00:58:44;;;;;;;46.30;27.35;;;22.70;33.40;;;;;;6059600;28;84603;-63
2022/01/25 01:01:45;;;;;;;45.35;25.95;;;22.70;33.20;;;;;;6064216;28;89495;-64
2022/01/25 01:04:46;;;;;;;50.03;27.65;;;22.70;33.40;;;;;;6059694;28;86637;-64
2022/01/25 01:07:47;;;;;;;49.55;27.15;;;22.70;33.30;;;;;;6059503;28;83272;-64
2022/01/25 01:10:47;;;;;;;51.45;27.10;;;22.70;33.20;;;;;;6061177;28;83162;-65
2022/01/25 01:28:50;;;;;;;51.63;28.48;;;22.70;33.50;;;;;;6060203;28;83646;-64
2022/01/25 01:33:45;;;;;;;56.22;30.35;;;22.60;33.40;;;;;;6061492;28;83221;-64
2022/01/25 01:42:58;;;;;;;58.08;32.05;;;22.60;33.70;;;;;;6060564;28;84141;-63
2022/01/25 01:49:11;;;;;;;57.63;31.25;;;22.60;33.10;;;;;;6047434;28;83276;-63
2022/01/25 01:52:12;;;;;;;59.05;31.45;;;22.60;33.20;;;;;;6062923;28;82955;-63
2022/01/25 01:55:13;;;;;;;57.90;31.83;;;22.60;33.10;;;;;;6048005;28;84053;-63
2022/01/25 01:58:13;;;;;;;58.33;32.53;;;22.60;33.10;;;;;;6046510;28;84776;-64
2022/01/25 02:01:14;;;;;;;60.28;33.35;;;22.60;33.00;;;;;;6052498;28;83142;-63
2022/01/25 02:04:14;;;;;;;65.07;34.22;;;22.60;33.10;;;;;;6051570;28;84883;-64
2022/01/25 02:07:15;;;;;;;59.95;33.15;;;22.60;33.20;;;;;;6062935;28;90558;-64
2022/01/25 02:10:15;;;;;;;61.50;32.95;;;22.60;33.30;;;;;;6061302;28;83066;-64
2022/01/25 02:13:16;;;;;;;64.82;33.97;;;22.60;33.80;;;;;;6057646;28;83077;-63
2022/01/25 02:22:59;;;;;;;57.47;32.05;;;22.60;33.30;;;;;;6057309;28;84325;-63
2022/01/25 02:26:00;;;;;;;60.33;31.70;;;22.60;33.40;;;;;;6046600;28;84001;-63
2022/01/25 02:29:00;;;;;;;63.38;32.90;;;22.60;33.50;;;;;;6059872;28;83061;-63
2022/01/25 02:32:01;;;;;;;59.35;31.25;;;22.60;33.50;;;;;;6058096;28;83543;-63
2022/01/25 02:35:02;;;;;;;59.45;32.47;;;22.60;34.60;;;;;;6044276;28;84090;-63
2022/01/25 02:38:03;;;;;;;58.15;30.95;;;22.60;33.80;;;;;;6052080;28;83175;-63
2022/01/25 02:41:03;;;;;;;61.28;32.40;;;22.50;33.80;;;;;;6065784;28;84370;-63
2022/01/25 02:44:04;;;;;;;55.03;30.48;;;22.50;33.80;;;;;;6056678;28;83035;-63
2022/01/25 02:50:24;;;;;;;54.75;29.10;;;22.50;33.90;;;;;;6064203;28;83914;-63
2022/01/25 02:53:24;;;;;;;56.95;31.33;;;22.50;34.30;;;;;;6063202;28;83027;-63
2022/01/25 02:56:25;;;;;;;55.95;28.48;;;22.50;34.10;;;;;;6046155;28;86403;-64
2022/01/25 02:59:26;;;;;;;49.63;28.00;;;22.50;34.60;;;;;;6062607;28;83078;-63
2022/01/25 03:02:27;;;;;;;51.42;28.05;;;22.50;34.00;;;;;;6049396;28;83172;-63
2022/01/25 03:05:28;;;;;;;47.58;27.02;;;22.50;34.20;;;;;;6060609;28;83185;-63
2022/01/25 03:08:28;;;;;;;50.60;28.10;;;22.50;34.00;;;;;;6063469;28;83221;-63
2022/01/25 03:11:29;;;;;;;44.92;25.10;;;22.50;34.10;;;;;;6063383;28;83951;-64
2022/01/25 03:14:32;;;;;;;47.35;25.35;;;22.50;34.00;;;;;;6048090;28;83594;-64
2022/01/25 03:17:35;;;;;;;44.65;24.58;;;22.50;33.70;;;;;;6047259;28;83295;-64
2022/01/25 03:20:52;;;;;;;43.03;23.55;;;22.50;34.00;;;;;;6061128;28;83562;-64
2022/01/25 03:23:52;;;;;;;40.65;22.48;;;22.60;33.50;;;;;;6052289;28;83647;-64
2022/01/25 03:26:53;;;;;;;40.65;22.23;;;22.60;33.40;;;;;;6067561;28;83097;-64
2022/01/25 03:29:53;;;;;;;41.88;21.83;;;22.70;33.30;;;;;;6058428;28;82946;-63
2022/01/25 03:32:54;;;;;;;36.20;19.60;;;22.70;33.20;;;;;;6060578;28;83424;-63
2022/01/25 03:35:54;;;;;;;38.13;21.17;;;22.80;33.00;;;;;;6060568;28;84064;-64
2022/01/25 03:38:54;;;;;;;34.58;19.55;;;22.80;33.00;;;;;;6062275;28;83153;-63
2022/01/25 03:41:55;;;;;;;33.85;19.23;;;22.90;32.90;;;;;;6061185;28;83937;-64
2022/01/25 03:44:56;;;;;;;33.28;18.77;;;22.90;32.80;;;;;;6045519;28;83551;-63
2022/01/25 03:49:47;;;;;;;35.20;19.15;;;22.90;32.80;;;;;;6055165;28;85655;-63
2022/01/25 03:51:17;;;;;;;29.95;17.08;;;23.00;32.80;;;;;;6060781;28;83112;-63
2022/01/25 03:54:18;;;;;;;31.70;18.60;;;23.00;32.80;;;;;;6061308;28;87662;-63
2022/01/25 03:57:18;;;;;;;29.60;17.63;;;23.00;32.80;;;;;;6042433;28;83201;-63
2022/01/25 04:00:19;;;;;;;27.90;15.75;;;23.00;32.80;;;;;;6063031;28;83069;-63
2022/01/25 04:03:30;;;;;;;32.67;15.98;;;23.10;32.90;;;;;;6051914;28;83108;-63
2022/01/25 04:06:32;;;;;;;29.63;15.98;;;23.10;32.80;;;;;;6060742;28;83439;-63
2022/01/25 04:09:33;;;;;;;23.98;15.20;;;23.10;32.90;;;;;;6061614;28;83318;-64
2022/01/25 04:12:33;;;;;;;34.08;16.63;;;23.10;32.80;;;;;;6061773;28;83277;-64
2022/01/25 04:15:34;;;;;;;26.08;15.23;;;23.20;32.90;;;;;;6061950;28;83892;-64
2022/01/25 04:18:47;;;;;;;25.77;15.15;;;23.20;33.10;;;;;;6061232;28;82912;-65
2022/01/25 04:25:14;;;;;;;22.45;13.23;;;23.10;33.10;;;;;;6061102;28;87484;-64
2022/01/25 04:28:14;;;;;;;22.73;13.05;;;23.20;33.20;;;;;;6063332;28;83229;-63
2022/01/25 04:31:18;;;;;;;23.33;13.85;;;23.20;33.30;;;;;;6058386;28;83242;-63
2022/01/25 04:51:10;;;;;;;20.40;11.55;;;23.20;33.60;;;;;;6059700;28;83224;-63
2022/01/25 05:00:36;;;;;;;20.95;12.90;;;23.30;33.70;;;;;;6060578;28;84251;-63
2022/01/25 05:04:02;;;;;;;18.50;11.60;;;23.30;33.70;;;;;;6070788;28;84751;-63
2022/01/25 05:07:18;;;;;;;20.85;12.55;;;23.30;33.80;;;;;;6062317;28;87839;-63
2022/01/25 05:10:18;;;;;;;19.50;11.80;;;23.30;33.80;;;;;;6055755;28;83364;-62
2022/01/25 05:22:32;;;;;;;18.20;10.85;;;23.40;33.80;;;;;;6053441;28;85417;-63
2022/01/25 05:25:33;;;;;;;20.25;12.38;;;23.30;33.80;;;;;;6047655;28;82916;-62
2022/01/25 05:28:33;;;;;;;18.02;11.25;;;23.40;33.90;;;;;;6044159;28;83201;-62
2022/01/25 05:31:34;;;;;;;18.23;11.30;;;23.40;33.90;;;;;;6058441;28;84219;-61
2022/01/25 05:34:34;;;;;;;17.73;11.40;;;23.40;33.80;;;;;;6058627;28;83968;-63
2022/01/25 05:37:41;;;;;;;18.77;10.77;;;23.40;33.80;;;;;;6058610;28;84524;-63
2022/01/25 05:40:48;;;;;;;17.70;11.10;;;23.40;33.70;;;;;;6058747;28;83970;-63
2022/01/25 05:47:12;;;;;;;18.90;10.60;;;23.40;33.70;;;;;;6058593;28;82992;-63
2022/01/25 05:50:13;;;;;;;20.45;11.73;;;23.40;33.90;;;;;;6060457;28;82967;-63
2022/01/25 05:53:14;;;;;;;22.70;12.77;;;23.50;34.10;;;;;;6051861;28;84867;-62
2022/01/25 05:56:16;;;;;;;21.38;11.30;;;23.50;34.20;;;;;;6057605;28;83828;-62
2022/01/25 05:59:16;;;;;;;20.67;12.23;;;23.50;34.30;;;;;;6059844;28;84330;-63
2022/01/25 06:02:20;;;;;;;17.00;10.63;;;23.50;34.00;;;;;;6056496;28;83370;-60
2022/01/25 06:05:20;;;;;;;19.02;11.68;;;23.50;34.40;;;;;;6057588;28;83289;-62
2022/01/25 06:08:21;;;;;;;19.38;11.68;;;23.50;33.90;;;;;;6059321;28;84506;-63
2022/01/25 06:11:21;;;;;;;18.40;10.98;;;23.50;34.40;;;;;;6051099;28;83174;-64
2022/01/25 06:14:22;;;;;;;19.02;10.80;;;23.50;34.90;;;;;;6057892;28;83183;-63
2022/01/25 06:17:22;;;;;;;17.45;11.70;;;23.40;34.70;;;;;;6058859;28;83104;-63
2022/01/25 06:20:23;;;;;;;16.70;10.85;;;23.40;35.30;;;;;;6057275;28;83970;-63
2022/01/25 06:23:23;;;;;;;22.08;11.77;;;23.40;35.80;;;;;;6045695;28;84275;-62
2022/01/25 06:26:24;;;;;;;19.73;12.40;;;23.40;35.20;;;;;;6053053;28;83855;-62
2022/01/25 06:29:24;;;;;;;17.38;10.52;;;23.40;35.10;;;;;;6047881;28;83690;-62
2022/01/25 06:32:25;;;;;;;20.75;12.10;;;23.30;35.00;;;;;;6053755;28;89750;-64
2022/01/25 06:35:30;;;;;;;21.15;11.93;;;23.30;35.20;;;;;;6047628;28;83096;-62
2022/01/25 06:38:31;;;;;;;22.00;11.43;;;23.30;35.70;;;;;;6042515;28;83120;-63
2022/01/25 06:41:33;;;;;;;17.80;10.30;;;23.30;35.90;;;;;;6058891;28;83424;-63
2022/01/25 06:44:36;;;;;;;22.98;12.50;;;23.20;37.50;;;;;;6059993;28;84074;-62
2022/01/25 06:47:36;;;;;;;16.73;10.25;;;23.20;36.80;;;;;;6055907;28;83540;-62
2022/01/25 06:50:37;;;;;;;14.40;8.32;;;23.00;38.20;;;;;;6055917;28;83941;-62
2022/01/25 06:53:37;;;;;;;13.80;8.80;;;23.00;39.00;;;;;;6064105;28;82977;-61
2022/01/25 06:56:38;;;;;;;11.07;7.60;;;23.00;40.10;;;;;;6045879;28;80872;-62
2022/01/25 06:59:38;;;;;;;13.80;7.53;;;23.00;41.00;;;;;;6056157;28;80533;-61
2022/01/25 07:02:39;;;;;;;10.05;6.13;;;23.00;41.70;;;;;;6063986;28;81032;-61
2022/01/25 07:05:39;;;;;;;9.55;5.78;;;23.00;42.10;;;;;;6059181;28;83857;-62
2022/01/25 07:08:41;;;;;;;14.27;7.35;;;23.00;42.90;;;;;;6063599;28;81348;-61
2022/01/25 07:11:41;;;;;;;14.02;7.00;;;23.00;43.30;;;;;;6064830;28;80506;-62
2022/01/25 07:14:42;;;;;;;10.70;6.32;;;23.00;43.70;;;;;;6056828;28;80785;-62
2022/01/25 07:17:42;;;;;;;9.82;6.05;;;23.00;44.10;;;;;;6061568;28;80491;-62
2022/01/25 07:20:43;;;;;;;10.55;6.03;;;23.00;44.20;;;;;;6056817;28;81650;-63
2022/01/25 07:23:45;;;;;;;10.32;6.07;;;22.90;44.60;;;;;;6063568;28;80567;-63
2022/01/25 07:26:47;;;;;;;9.38;5.35;;;22.90;44.90;;;;;;6062628;28;80460;-63
2022/01/25 07:29:47;;;;;;;12.35;6.30;;;22.90;44.90;;;;;;6054587;28;81912;-63
2022/01/25 07:32:48;;;;;;;10.10;6.28;;;22.90;44.70;;;;;;6057889;28;81431;-63
2022/01/25 07:35:48;;;;;;;11.23;6.60;;;22.90;44.60;;;;;;6065764;28;80439;-63
2022/01/25 07:38:49;;;;;;;9.20;5.63;;;22.90;44.50;;;;;;6065701;28;81602;-61
2022/01/25 07:41:49;;;;;;;11.77;5.97;;;22.90;44.90;;;;;;6064172;28;80800;-62
2022/01/25 07:44:56;;;;;;;14.52;6.70;;;22.80;44.90;;;;;;6052430;28;83470;-65
2022/01/25 07:47:56;;;;;;;13.23;7.60;;;22.80;44.30;;;;;;6049997;28;81006;-65
2022/01/25 07:50:57;;;;;;;13.30;7.13;;;22.80;43.40;;;;;;6052736;28;81280;-64
2022/01/25 07:53:59;;;;;;;14.52;8.20;;;22.80;43.10;;;;;;6077133;28;80462;-65
2022/01/25 07:56:59;;;;;;;13.88;7.78;;;22.80;42.90;;;;;;6052953;28;80915;-65
2022/01/25 08:00:00;;;;;;;12.68;7.65;;;22.80;42.60;;;;;;6066525;28;85942;-65
2022/01/25 08:03:00;;;;;;;12.38;7.68;;;22.80;42.70;;;;;;6065278;28;80157;-64
2022/01/25 08:06:01;;;;;;;19.00;8.40;;;22.80;42.50;;;;;;6064370;28;80548;-65
2022/01/25 08:09:02;;;;;;;12.82;7.57;;;22.80;42.40;;;;;;6063983;28;80492;-59
2022/01/25 08:12:02;;;;;;;13.95;7.57;;;22.80;42.30;;;;;;6057777;28;80947;-59
2022/01/25 08:15:04;;;;;;;11.43;7.45;;;22.80;42.40;;;;;;6063154;28;81658;-59
2022/01/25 08:18:04;;;;;;;10.68;7.25;;;22.80;42.10;;;;;;6065896;28;80518;-59
2022/01/25 08:21:05;;;;;;;9.75;7.15;;;22.70;41.80;;;;;;6066197;28;80427;-59
2022/01/25 08:24:05;;;;;;;14.30;8.10;;;22.70;41.80;;;;;;6066495;28;81834;-59
2022/01/25 08:27:06;;;;;;;12.95;7.40;;;22.70;41.60;;;;;;6063886;28;81418;-59
2022/01/25 08:30:06;;;;;;;14.23;8.40;;;22.70;41.70;;;;;;6064457;28;80625;-65
2022/01/25 08:33:07;;;;;;;14.40;8.45;;;22.70;41.40;;;;;;6066576;28;81009;-64
2022/01/25 08:36:07;;;;;;;14.48;8.27;;;22.70;42.20;;;;;;6063200;28;80983;-65
2022/01/25 08:39:08;;;;;;;15.85;7.57;;;22.60;42.30;;;;;;6055477;28;80453;-65
2022/01/25 08:42:08;;;;;;;11.05;7.45;;;22.70;42.30;;;;;;6061254;28;80698;-65
2022/01/25 08:45:09;;;;;;;23.30;8.68;;;22.60;42.90;;;;;;6064327;28;81873;-65
2022/01/25 08:48:09;;;;;;;15.65;7.70;;;22.60;43.20;;;;;;6054840;28;80976;-64
2022/01/25 08:51:10;;;;;;;15.57;8.07;;;22.60;43.40;;;;;;6062644;28;80615;-64
2022/01/25 08:54:11;;;;;;;14.75;7.78;;;22.60;42.70;;;;;;6072273;28;80127;-65
2022/01/25 08:57:11;;;;;;;16.30;7.82;;;22.70;42.50;;;;;;6044208;28;82724;-64
2022/01/25 09:00:12;;;;;;;15.40;8.70;;;22.80;42.50;;;;;;6062520;28;80283;-63
2022/01/25 09:03:12;;;;;;;16.63;8.00;;;22.80;42.40;;;;;;6061876;28;80916;-60
2022/01/25 09:06:13;;;;;;;10.55;7.70;;;22.90;42.40;;;;;;6063614;28;80582;-62
2022/01/25 09:09:13;;;;;;;12.32;7.82;;;22.90;42.10;;;;;;6063022;28;81147;-62
2022/01/25 09:12:14;;;;;;;11.88;7.32;;;22.90;42.40;;;;;;6061249;28;80456;-63
2022/01/25 09:15:14;;;;;;;12.02;7.38;;;23.00;42.70;;;;;;6040669;28;81173;-62
2022/01/25 09:18:15;;;;;;;16.50;7.07;;;23.00;42.50;;;;;;6064104;28;80928;-62
2022/01/25 09:21:15;;;;;;;37.60;19.08;;;23.00;42.90;;;;;;6064456;28;86678;-62
2022/01/25 09:24:15;;;;;;;183.52;81.95;;;23.10;43.10;;;;;;6057147;28;82806;-62
2022/01/25 09:27:16;;;;;;;254.80;110.05;;;23.10;43.40;;;;;;6058913;28;83212;-63
2022/01/25 09:30:16;;;;;;;240.57;111.03;;;23.10;43.10;;;;;;6055680;28;85682;-62
2022/01/25 09:33:17;;;;;;;186.25;86.22;;;23.10;43.50;;;;;;6051225;28;85530;-61
2022/01/25 09:36:17;;;;;;;167.98;76.70;;;23.10;44.30;;;;;;6064980;28;85612;-61
2022/01/25 09:39:18;;;;;;;198.30;88.80;;;23.10;44.00;;;;;;6059347;28;83146;-63
2022/01/25 09:42:20;;;;;;;360.70;162.52;;;23.10;43.40;;;;;;6059895;28;83372;-63
2022/01/25 09:45:20;;;;;;;382.50;171.07;;;23.10;44.50;;;;;;6041764;28;86065;-62
2022/01/25 09:48:21;;;;;;;291.88;131.52;;;23.10;44.40;;;;;;6054092;28;85732;-62
2022/01/25 09:51:22;;;;;;;225.68;102.30;;;23.10;44.60;;;;;;6056588;28;85876;-63
2022/01/25 09:54:23;;;;;;;222.23;101.72;;;23.10;44.30;;;;;;6050911;28;85550;-63
2022/01/25 09:57:23;;;;;;;191.38;84.20;;;23.10;44.20;;;;;;6054185;28;86157;-62
2022/01/25 10:00:24;;;;;;;172.32;74.45;;;23.10;44.50;;;;;;6058770;28;85683;-61
2022/01/25 10:03:32;;;;;;;135.90;64.13;;;23.10;44.60;;;;;;6050913;28;83371;-62
2022/01/25 10:06:33;;;;;;;118.97;56.42;;;23.10;44.80;;;;;;6057914;28;83139;-61
2022/01/25 10:09:34;;;;;;;124.30;53.35;;;23.10;44.70;;;;;;6059612;28;83579;-62
2022/01/25 10:12:34;;;;;;;102.55;48.53;;;23.10;45.10;;;;;;6058857;28;83555;-63
2022/01/25 10:15:35;;;;;;;93.43;42.50;;;23.10;45.10;;;;;;6059576;28;83571;-64
2022/01/25 10:18:35;;;;;;;88.90;40.78;;;23.10;45.00;;;;;;6058785;28;83555;-65
2022/01/25 10:21:36;;;;;;;74.60;35.95;;;23.10;44.80;;;;;;6057007;28;83180;-61
2022/01/25 10:24:36;;;;;;;56.63;29.95;;;23.10;43.90;;;;;;6058844;28;83083;-61
2022/01/25 10:28:22;;;;;;;51.50;26.80;;;23.10;43.40;;;;;;6059003;28;83001;-62
2022/01/25 10:30:58;;;;;;;49.50;24.30;;;23.00;43.40;;;;;;6036382;28;88263;-60
2022/01/25 10:33:58;;;;;;;40.17;21.55;;;23.10;43.50;;;;;;6062046;28;84699;-61
2022/01/25 10:37:00;;;;;;;45.83;22.15;;;23.00;43.70;;;;;;6058398;28;83184;-62
2022/01/25 10:40:00;;;;;;;42.08;18.10;;;23.00;43.60;;;;;;6052784;28;84066;-61
2022/01/25 10:43:01;;;;;;;38.72;19.23;;;23.00;43.70;;;;;;6056007;28;83511;-63
2022/01/25 10:46:01;;;;;;;35.75;17.35;;;23.00;43.60;;;;;;6053833;28;83343;-62
2022/01/25 10:49:02;;;;;;;31.02;16.45;;;23.00;43.70;;;;;;6055067;28;83248;-62
2022/01/25 10:52:02;;;;;;;28.92;13.68;;;23.00;43.90;;;;;;6055675;28;83276;-62
2022/01/25 10:55:03;;;;;;;29.05;14.00;;;23.00;43.80;;;;;;6038616;28;84195;-62
2022/01/25 10:58:03;;;;;;;26.85;14.27;;;23.00;43.60;;;;;;6061171;28;82956;-62
2022/01/25 11:01:04;;;;;;;24.38;14.00;;;22.90;43.50;;;;;;6058923;28;83184;-61
2022/01/25 11:04:04;;;;;;;26.27;12.88;;;22.90;43.60;;;;;;6057609;28;83529;-62
2022/01/25 11:07:05;;;;;;;24.75;13.35;;;22.90;43.60;;;;;;6061280;28;84620;-62
2022/01/25 11:10:05;;;;;;;22.65;13.20;;;22.90;43.70;;;;;;6063026;28;83148;-62
2022/01/25 11:13:21;;;;;;;25.85;13.55;;;22.90;43.70;;;;;;6059107;28;83345;-61
2022/01/25 11:16:22;;;;;;;24.35;12.77;;;22.90;43.70;;;;;;6060488;28;83477;-62
2022/01/25 11:19:22;;;;;;;21.58;11.68;;;22.90;43.70;;;;;;6045766;28;84628;-62
2022/01/25 11:22:23;;;;;;;20.67;11.85;;;22.90;43.70;;;;;;6055280;28;84059;-62
2022/01/25 11:25:23;;;;;;;19.13;10.77;;;22.90;43.80;;;;;;6059045;28;84634;-61
2022/01/25 11:28:24;;;;;;;16.17;9.85;;;22.90;43.90;;;;;;6058735;28;84048;-62
2022/01/25 11:31:24;;;;;;;19.45;10.90;;;22.80;44.10;;;;;;6064317;28;83940;-62
2022/01/25 11:34:26;;;;;;;18.60;10.32;;;22.80;44.00;;;;;;6061779;28;84738;-62
2022/01/25 11:37:26;;;;;;;16.40;10.68;;;22.80;44.40;;;;;;6062836;28;83307;-62
2022/01/25 11:40:27;;;;;;;18.13;10.45;;;22.80;44.20;;;;;;6064035;28;83432;-62
2022/01/25 11:43:27;;;;;;;17.63;10.88;;;22.80;44.50;;;;;;6062834;28;82983;-62
2022/01/25 11:46:28;;;;;;;14.15;9.43;;;22.80;44.30;;;;;;6062443;28;83545;-63
2022/01/25 11:49:28;;;;;;;17.63;9.98;;;22.80;44.60;;;;;;6064668;28;82064;-63
2022/01/25 11:52:29;;;;;;;18.73;10.50;;;22.80;44.30;;;;;;6062528;28;83061;-63
2022/01/25 11:55:30;;;;;;;14.32;9.25;;;22.70;44.30;;;;;;6060767;28;83490;-61
2022/01/25 11:58:30;;;;;;;16.75;9.70;;;22.70;44.00;;;;;;6066364;28;82902;-64
2022/01/25 12:01:31;;;;;;;16.00;9.50;;;22.70;44.10;;;;;;6066847;28;80441;-64
2022/01/25 12:04:31;;;;;;;15.75;9.55;;;22.70;44.60;;;;;;6055305;28;80643;-63
2022/01/25 12:07:38;;;;;;;15.45;9.23;;;22.70;44.50;;;;;;6066022;28;80331;-63
2022/01/25 12:10:40;;;;;;;17.13;9.50;;;22.70;44.60;;;;;;6063040;28;81220;-63
2022/01/25 12:13:41;;;;;;;16.30;9.52;;;22.80;44.70;;;;;;6065093;28;81065;-62
2022/01/25 12:16:44;;;;;;;20.23;9.25;;;22.80;45.10;;;;;;6059392;28;80396;-62
2022/01/25 12:19:46;;;;;;;15.38;8.85;;;22.80;44.90;;;;;;6067223;28;81500;-63
2022/01/25 12:22:48;;;;;;;14.60;8.77;;;22.80;45.00;;;;;;6060449;28;81912;-63
2022/01/25 12:25:55;;;;;;;16.98;9.68;;;22.80;45.30;;;;;;6058885;28;82203;-62
2022/01/25 12:28:56;;;;;;;16.63;9.73;;;22.80;45.30;;;;;;6065165;28;80467;-63
2022/01/25 12:31:56;;;;;;;26.85;11.55;;;22.80;46.10;;;;;;6065571;28;81326;-63
2022/01/25 12:34:57;;;;;;;32.42;12.32;;;22.80;46.20;;;;;;6055587;28;83238;-61
2022/01/25 12:37:57;;;;;;;34.28;13.52;;;22.80;47.20;;;;;;6041308;28;84072;-62
2022/01/25 12:40:58;;;;;;;32.08;13.30;;;22.80;46.60;;;;;;6061425;28;82968;-62
2022/01/25 12:43:59;;;;;;;28.67;14.20;;;22.80;46.60;;;;;;6060571;28;83618;-63
2022/01/25 12:47:00;;;;;;;28.65;12.60;;;22.80;46.60;;;;;;6067696;28;83922;-63
2022/01/25 12:50:00;;;;;;;28.67;13.52;;;22.80;46.40;;;;;;6062666;28;83507;-62
2022/01/25 12:53:01;;;;;;;24.98;11.95;;;22.80;46.40;;;;;;6053560;28;83364;-62
2022/01/25 12:56:02;;;;;;;26.90;12.10;;;22.80;46.60;;;;;;6054998;28;85071;-62
2022/01/25 12:59:02;;;;;;;25.58;11.98;;;22.90;46.20;;;;;;6062145;28;83075;-63
2022/01/25 13:02:03;;;;;;;23.75;11.73;;;22.90;46.10;;;;;;6063094;28;83078;-62
2022/01/25 13:05:03;;;;;;;23.33;12.00;;;22.90;46.40;;;;;;6063224;28;83379;-62
2022/01/25 13:08:07;;;;;;;23.00;10.25;;;22.90;46.10;;;;;;6043745;28;83259;-63
2022/01/25 13:11:07;;;;;;;18.52;9.60;;;22.90;46.20;;;;;;6062238;28;84175;-63
2022/01/25 13:17:15;;;;;;;29.05;11.05;;;22.90;46.10;;;;;;6062523;28;83054;-64
2022/01/25 13:20:16;;;;;;;22.20;10.55;;;22.90;46.10;;;;;;6061949;28;83278;-63
2022/01/25 13:23:16;;;;;;;24.38;10.98;;;22.80;45.70;;;;;;6043489;28;83280;-61
2022/01/25 13:26:20;;;;;;;17.77;10.55;;;22.80;45.80;;;;;;6056181;28;84544;-64
2022/01/25 13:32:53;;;;;;;17.13;11.00;;;22.80;45.60;;;;;;6007488;28;83337;-62
2022/01/25 13:35:56;;;;;;;21.92;10.60;;;22.70;46.10;;;;;;6061833;28;85661;-65
2022/01/25 13:38:58;;;;;;;17.15;10.70;;;22.80;45.50;;;;;;6064147;28;83691;-64
2022/01/25 13:41:59;;;;;;;19.42;10.13;;;22.80;45.20;;;;;;6055791;28;83152;-64
2022/01/25 13:48:21;;;;;;;20.48;11.40;;;22.70;44.70;;;;;;6064643;28;83517;-64
2022/01/25 13:51:22;;;;;;;19.92;11.25;;;22.70;44.70;;;;;;6059984;28;83158;-63
2022/01/25 13:54:22;;;;;;;17.60;10.75;;;22.70;44.60;;;;;;6060595;28;83630;-63
2022/01/25 13:57:23;;;;;;;19.52;11.02;;;22.80;45.00;;;;;;6051732;28;83747;-62
2022/01/25 14:00:23;;;;;;;18.77;11.25;;;22.70;44.50;;;;;;6052198;28;83706;-63
2022/01/25 14:03:24;;;;;;;17.52;10.93;;;22.70;44.50;;;;;;6057453;28;83076;-62
2022/01/25 14:06:24;;;;;;;15.13;10.38;;;22.70;44.50;;;;;;6057004;28;83432;-62
2022/01/25 14:09:29;;;;;;;18.08;11.00;;;22.70;44.40;;;;;;6054236;28;83726;-61
2022/01/25 14:25:55;;;;;;;19.48;12.68;;;22.70;43.30;;;;;;6033894;28;81769;-62
2022/01/25 14:29:06;;;;;;;18.13;11.40;;;22.70;42.90;;;;;;6058840;28;83972;-63
2022/01/25 14:32:07;;;;;;;20.83;13.23;;;22.70;43.30;;;;;;6053064;28;83855;-63
2022/01/25 14:35:09;;;;;;;25.52;14.95;;;22.70;43.40;;;;;;6054582;28;83700;-62
2022/01/25 14:38:14;;;;;;;20.60;13.93;;;22.70;43.30;;;;;;6057526;28;83317;-63
2022/01/25 14:41:18;;;;;;;20.05;12.13;;;22.70;43.10;;;;;;6056785;28;83952;-63
2022/01/25 14:44:23;;;;;;;23.33;13.73;;;22.70;43.00;;;;;;6040565;28;86596;-63
2022/01/25 14:47:24;;;;;;;22.42;13.40;;;22.70;43.10;;;;;;6058852;28;83240;-63
2022/01/25 14:50:25;;;;;;;21.30;11.65;;;22.70;43.20;;;;;;6057479;28;82760;-63
2022/01/25 14:53:25;;;;;;;21.42;13.63;;;22.70;43.70;;;;;;6058006;28;85522;-63
2022/01/25 14:56:26;;;;;;;56.83;29.80;;;22.70;44.20;;;;;;6055320;28;83000;-63
2022/01/25 14:59:27;;;;;;;126.97;62.92;;;22.70;44.10;;;;;;6031112;28;84512;-63
2022/01/25 15:02:28;;;;;;;230.25;110.03;;;22.70;44.50;;;;;;6041160;28;84658;-62
2022/01/25 15:05:28;;;;;;;214.75;103.25;;;22.80;45.40;;;;;;6051571;28;85349;-63
2022/01/25 15:08:29;;;;;;;214.63;105.47;;;22.70;45.40;;;;;;6051152;28;86412;-62
2022/01/25 15:11:31;;;;;;;333.05;152.18;;;22.70;45.10;;;;;;6052444;28;85688;-62
2022/01/25 15:14:39;;;;;;;364.33;168.27;;;22.80;45.60;;;;;;6056994;28;86413;-63
2022/01/25 15:17:39;;;;;;;285.85;138.10;;;22.70;45.60;;;;;;6051772;28;85862;-65
2022/01/25 15:20:40;;;;;;;250.45;118.82;;;22.70;45.10;;;;;;6052250;28;86493;-63
2022/01/25 15:23:46;;;;;;;197.77;95.82;;;22.70;44.80;;;;;;6055934;28;86532;-63
2022/01/25 15:26:52;;;;;;;215.10;97.15;;;22.70;44.50;;;;;;6041873;28;87856;-63
2022/01/25 15:29:52;;;;;;;;;;;22.70;45.10;;;;;;6062933;28;83090;-63
2022/01/25 15:32:53;;;;;;;136.80;65.55;;;22.70;45.10;;;;;;6067249;28;84318;-63
2022/01/25 15:35:53;;;;;;;127.28;61.40;;;22.70;44.90;;;;;;6058000;28;85762;-63
2022/01/25 15:38:54;;;;;;;124.35;56.63;;;22.70;44.70;;;;;;6046940;28;83887;-63
2022/01/25 15:41:57;;;;;;;102.80;51.13;;;22.70;44.90;;;;;;6057678;28;83967;-63
2022/01/25 15:44:58;;;;;;;93.78;46.55;;;22.80;45.00;;;;;;6058282;28;83367;-63
2022/01/25 15:47:59;;;;;;;86.10;42.40;;;22.80;45.20;;;;;;6066712;28;82834;-64
2022/01/25 15:50:59;;;;;;;72.72;37.90;;;22.80;45.60;;;;;;6057792;28;83719;-63
2022/01/25 15:54:00;;;;;;;70.13;35.60;;;22.80;45.30;;;;;;6061408;28;83129;-63
2022/01/25 15:57:00;;;;;;;67.47;32.40;;;22.80;45.20;;;;;;6056982;28;88819;-63
2022/01/25 16:00:01;;;;;;;68.25;28.40;;;22.80;45.10;;;;;;6058114;28;84065;-64
2022/01/25 16:03:14;;;;;;;52.78;27.42;;;22.90;45.10;;;;;;6056252;28;83258;-62
2022/01/25 16:06:18;;;;;;;47.78;24.08;;;22.90;44.80;;;;;;6042933;28;90980;-64
2022/01/25 16:09:23;;;;;;;48.95;25.10;;;22.90;44.70;;;;;;6062675;28;83180;-63
2022/01/25 16:12:27;;;;;;;45.72;23.25;;;23.00;44.60;;;;;;6061422;28;82956;-64
2022/01/25 16:15:27;;;;;;;39.97;21.58;;;23.10;44.60;;;;;;6043117;28;84165;-64
2022/01/25 16:18:29;;;;;;;38.58;19.58;;;23.10;44.20;;;;;;6059248;28;84887;-63
2022/01/25 16:21:30;;;;;;;33.20;18.08;;;23.10;44.20;;;;;;6078113;28;83922;-62
2022/01/25 16:24:30;;;;;;;31.85;18.40;;;23.10;44.10;;;;;;6057322;28;83371;-62
2022/01/25 16:27:31;;;;;;;30.83;17.20;;;23.20;44.60;;;;;;6053178;28;86346;-63
2022/01/25 16:30:31;;;;;;;30.10;15.30;;;23.20;44.20;;;;;;6060878;28;83235;-63
2022/01/25 16:33:32;;;;;;;29.20;15.07;;;23.20;44.40;;;;;;6061697;28;82890;-64
2022/01/25 16:36:32;;;;;;;26.67;15.98;;;23.20;44.60;;;;;;6044106;28;83022;-63
2022/01/25 16:39:33;;;;;;;29.45;16.75;;;23.30;44.70;;;;;;6062428;28;83049;-64
2022/01/25 16:42:33;;;;;;;29.58;15.60;;;23.30;44.90;;;;;;6044873;28;86221;-66
2022/01/25 16:45:35;;;;;;;25.13;14.15;;;23.30;44.80;;;;;;6054368;28;84238;-66
2022/01/25 16:48:36;;;;;;;26.70;15.23;;;23.40;44.50;;;;;;6043962;28;83241;-65
2022/01/25 16:51:36;;;;;;;25.05;15.52;;;23.40;44.40;;;;;;6046679;28;83668;-64
2022/01/25 16:54:37;;;;;;;28.15;15.55;;;23.40;43.90;;;;;;6041058;28;83365;-62
2022/01/25 16:57:37;;;;;;;28.77;17.30;;;23.40;43.40;;;;;;6042814;28;84836;-64
2022/01/25 17:00:39;;;;;;;25.35;16.42;;;23.40;42.40;;;;;;6057618;28;86237;-65
2022/01/25 17:03:40;;;;;;;26.58;15.65;;;23.40;42.30;;;;;;6057070;28;84082;-65
2022/01/25 17:06:41;;;;;;;28.95;16.20;;;23.40;41.80;;;;;;6058334;28;82913;-63
2022/01/25 17:09:41;;;;;;;28.20;16.23;;;23.50;42.20;;;;;;6055632;28;84979;-64
2022/01/25 17:12:42;;;;;;;26.05;15.50;;;23.50;42.40;;;;;;6051968;28;83523;-64
2022/01/25 17:15:42;;;;;;;28.52;16.42;;;23.50;42.40;;;;;;6056015;28;83979;-63
2022/01/25 17:18:43;;;;;;;26.20;16.38;;;23.50;42.40;;;;;;6059603;28;82999;-62
2022/01/25 17:21:44;;;;;;;26.75;16.92;;;23.60;42.70;;;;;;6057721;28;84163;-61
2022/01/25 17:24:45;;;;;;;26.90;15.50;;;23.60;42.90;;;;;;6058398;28;83735;-62
2022/01/25 17:27:46;;;;;;;24.60;15.13;;;23.60;43.00;;;;;;6058616;28;83271;-62
2022/01/25 17:30:46;;;;;;;24.75;15.00;;;23.60;43.00;;;;;;6058581;28;83155;-62